sensor_id;sensor_type;location;lat;lon;timestamp;temperature;humidity
15717;DHT22;7960;50.908;4.204;2022-07-21T00:00:24;19.30;99.90
15717;DHT22;7960;50.908;4.204;2022-07-21T00:02:52;19.20;99.90
15717;DHT22;7960;50.908;4.204;2022-07-21T00:05:19;19.20;99.90
15717;DHT22;7960;50.908;4.204;2022-07-21T00:07:47;19.20;99.90
15717;DHT22;7960;50.908;4.204;2022-07-21T00:10:15;19.10;99.90
15717;DHT22;7960;50.908;4.204;2022-07-21T00:12:42;19.00;99.90
15717;DHT22;7960;50.908;4.204;2022-07-21T00:15:11;19.00;99.90
15717;DHT22;7960;50.908;4.204;2022-07-21T00:17:38;18.90;99.90
15717;DHT22;7960;50.908;4.204;2022-07-21T00:20:07;19.00;99.90
15717;DHT22;7960;50.908;4.204;2022-07-21T00:22:34;19.00;99.90
15717;DHT22;7960;50.908;4.204;2022-07-21T00:25:02;19.00;99.90
15717;DHT22;7960;50.908;4.204;2022-07-21T00:27:30;19.10;99.90
15717;DHT22;7960;50.908;4.204;2022-07-21T00:29:57;19.00;99.90
15717;DHT22;7960;50.908;4.204;2022-07-21T00:32:24;19.00;99.90
15717;DHT22;7960;50.908;4.204;2022-07-21T00:34:51;18.90;99.90
15717;DHT22;7960;50.908;4.204;2022-07-21T00:37:18;19.00;99.90
15717;DHT22;7960;50.908;4.204;2022-07-21T00:39:45;18.90;99.90
15717;DHT22;7960;50.908;4.204;2022-07-21T00:42:20;19.00;99.90
15717;DHT22;7960;50.908;4.204;2022-07-21T00:44:48;19.00;99.90
15717;DHT22;7960;50.908;4.204;2022-07-21T00:47:19;19.00;99.90
15717;DHT22;7960;50.908;4.204;2022-07-21T00:49:46;19.00;99.90
15717;DHT22;7960;50.908;4.204;2022-07-21T00:52:13;19.10;99.90
15717;DHT22;7960;50.908;4.204;2022-07-21T00:54:40;19.10;99.90
15717;DHT22;7960;50.908;4.204;2022-07-21T00:57:08;19.00;99.90
15717;DHT22;7960;50.908;4.204;2022-07-21T00:59:35;19.00;99.90
15717;DHT22;7960;50.908;4.204;2022-07-21T01:02:04;19.00;99.90
15717;DHT22;7960;50.908;4.204;2022-07-21T01:04:31;19.00;99.90
15717;DHT22;7960;50.908;4.204;2022-07-21T01:07:00;18.90;99.90
15717;DHT22;7960;50.908;4.204;2022-07-21T01:09:27;18.90;99.90
15717;DHT22;7960;50.908;4.204;2022-07-21T01:11:54;18.90;99.90
15717;DHT22;7960;50.908;4.204;2022-07-21T01:14:21;18.90;99.90
15717;DHT22;7960;50.908;4.204;2022-07-21T01:16:48;18.80;99.90
15717;DHT22;7960;50.908;4.204;2022-07-21T01:19:17;18.70;99.90
15717;DHT22;7960;50.908;4.204;2022-07-21T01:21:47;18.70;99.90
15717;DHT22;7960;50.908;4.204;2022-07-21T01:24:14;18.80;99.90
15717;DHT22;7960;50.908;4.204;2022-07-21T01:26:42;18.90;99.90
15717;DHT22;7960;50.908;4.204;2022-07-21T01:29:10;18.80;99.90
15717;DHT22;7960;50.908;4.204;2022-07-21T01:31:37;18.90;99.90
15717;DHT22;7960;50.908;4.204;2022-07-21T01:34:04;18.90;99.90
15717;DHT22;7960;50.908;4.204;2022-07-21T01:36:31;18.90;99.90
15717;DHT22;7960;50.908;4.204;2022-07-21T01:39:00;18.80;99.90
15717;DHT22;7960;50.908;4.204;2022-07-21T01:41:44;18.80;99.90
15717;DHT22;7960;50.908;4.204;2022-07-21T01:44:12;18.70;99.90
15717;DHT22;7960;50.908;4.204;2022-07-21T01:46:41;18.80;99.90
15717;DHT22;7960;50.908;4.204;2022-07-21T01:49:10;18.80;99.90
15717;DHT22;7960;50.908;4.204;2022-07-21T01:51:39;18.70;99.90
15717;DHT22;7960;50.908;4.204;2022-07-21T01:54:09;18.70;99.90
15717;DHT22;7960;50.908;4.204;2022-07-21T01:56:37;18.70;99.90
15717;DHT22;7960;50.908;4.204;2022-07-21T01:59:05;18.70;99.90
15717;DHT22;7960;50.908;4.204;2022-07-21T02:01:33;18.60;99.90
15717;DHT22;7960;50.908;4.204;2022-07-21T02:04:02;18.60;99.90
15717;DHT22;7960;50.908;4.204;2022-07-21T02:06:29;18.60;99.90
15717;DHT22;7960;50.908;4.204;2022-07-21T02:08:56;18.70;99.90
15717;DHT22;7960;50.908;4.204;2022-07-21T02:11:24;18.80;99.90
15717;DHT22;7960;50.908;4.204;2022-07-21T02:13:51;18.80;99.90
15717;DHT22;7960;50.908;4.204;2022-07-21T02:16:18;18.80;99.90
15717;DHT22;7960;50.908;4.204;2022-07-21T02:18:45;18.80;99.90
15717;DHT22;7960;50.908;4.204;2022-07-21T02:21:12;18.90;99.90
15717;DHT22;7960;50.908;4.204;2022-07-21T02:23:39;18.80;99.90
15717;DHT22;7960;50.908;4.204;2022-07-21T02:26:06;18.80;99.90
15717;DHT22;7960;50.908;4.204;2022-07-21T02:28:34;18.80;99.90
15717;DHT22;7960;50.908;4.204;2022-07-21T02:31:01;18.80;99.90
15717;DHT22;7960;50.908;4.204;2022-07-21T02:33:28;18.70;99.90
15717;DHT22;7960;50.908;4.204;2022-07-21T02:35:55;18.70;99.90
15717;DHT22;7960;50.908;4.204;2022-07-21T02:38:21;18.70;99.90
15717;DHT22;7960;50.908;4.204;2022-07-21T02:40:48;18.80;99.90
15717;DHT22;7960;50.908;4.204;2022-07-21T02:43:15;18.90;99.90
15717;DHT22;7960;50.908;4.204;2022-07-21T02:45:44;18.80;99.90
15717;DHT22;7960;50.908;4.204;2022-07-21T02:48:12;18.80;99.90
15717;DHT22;7960;50.908;4.204;2022-07-21T02:50:40;18.80;99.90
15717;DHT22;7960;50.908;4.204;2022-07-21T02:53:10;18.80;99.90
15717;DHT22;7960;50.908;4.204;2022-07-21T02:55:37;18.70;99.90
15717;DHT22;7960;50.908;4.204;2022-07-21T02:58:07;18.70;99.90
15717;DHT22;7960;50.908;4.204;2022-07-21T03:00:36;18.80;99.90
15717;DHT22;7960;50.908;4.204;2022-07-21T03:03:04;18.80;99.90
15717;DHT22;7960;50.908;4.204;2022-07-21T03:05:32;18.80;99.90
15717;DHT22;7960;50.908;4.204;2022-07-21T03:07:59;18.60;99.90
15717;DHT22;7960;50.908;4.204;2022-07-21T03:10:26;18.70;99.90
15717;DHT22;7960;50.908;4.204;2022-07-21T03:12:53;18.70;99.90
15717;DHT22;7960;50.908;4.204;2022-07-21T03:15:20;18.70;99.90
15717;DHT22;7960;50.908;4.204;2022-07-21T03:17:47;18.70;99.90
15717;DHT22;7960;50.908;4.204;2022-07-21T03:20:15;18.70;99.90
15717;DHT22;7960;50.908;4.204;2022-07-21T03:22:42;18.80;99.90
15717;DHT22;7960;50.908;4.204;2022-07-21T03:25:09;18.70;99.90
15717;DHT22;7960;50.908;4.204;2022-07-21T03:27:36;18.70;99.90
15717;DHT22;7960;50.908;4.204;2022-07-21T03:30:08;18.60;99.90
15717;DHT22;7960;50.908;4.204;2022-07-21T03:32:35;18.60;99.90
15717;DHT22;7960;50.908;4.204;2022-07-21T03:35:04;18.60;99.90
15717;DHT22;7960;50.908;4.204;2022-07-21T03:37:32;18.60;99.90
15717;DHT22;7960;50.908;4.204;2022-07-21T03:39:59;18.60;99.90
15717;DHT22;7960;50.908;4.204;2022-07-21T03:42:26;18.60;99.90
15717;DHT22;7960;50.908;4.204;2022-07-21T03:44:53;18.60;99.90
15717;DHT22;7960;50.908;4.204;2022-07-21T03:47:20;18.60;99.90
15717;DHT22;7960;50.908;4.204;2022-07-21T03:49:46;18.60;99.90
15717;DHT22;7960;50.908;4.204;2022-07-21T03:52:13;18.60;99.90
15717;DHT22;7960;50.908;4.204;2022-07-21T03:54:42;18.60;99.90
15717;DHT22;7960;50.908;4.204;2022-07-21T03:57:08;18.60;99.90
15717;DHT22;7960;50.908;4.204;2022-07-21T03:59:35;18.60;99.90
15717;DHT22;7960;50.908;4.204;2022-07-21T04:02:03;18.60;99.90
15717;DHT22;7960;50.908;4.204;2022-07-21T04:04:30;18.60;99.90
15717;DHT22;7960;50.908;4.204;2022-07-21T04:06:56;18.60;99.90
15717;DHT22;7960;50.908;4.204;2022-07-21T04:09:23;18.60;99.90
15717;DHT22;7960;50.908;4.204;2022-07-21T04:11:51;18.60;99.90
15717;DHT22;7960;50.908;4.204;2022-07-21T04:14:18;18.60;99.90
15717;DHT22;7960;50.908;4.204;2022-07-21T04:16:45;18.70;99.90
15717;DHT22;7960;50.908;4.204;2022-07-21T04:19:12;18.70;99.90
15717;DHT22;7960;50.908;4.204;2022-07-21T04:21:39;18.70;99.90
15717;DHT22;7960;50.908;4.204;2022-07-21T04:24:06;18.70;99.90
15717;DHT22;7960;50.908;4.204;2022-07-21T04:26:33;18.70;99.90
15717;DHT22;7960;50.908;4.204;2022-07-21T04:29:01;18.70;99.90
15717;DHT22;7960;50.908;4.204;2022-07-21T04:31:28;18.70;99.90
15717;DHT22;7960;50.908;4.204;2022-07-21T04:33:54;18.70;99.90
15717;DHT22;7960;50.908;4.204;2022-07-21T04:36:22;18.70;99.90
15717;DHT22;7960;50.908;4.204;2022-07-21T04:38:48;18.60;99.90
15717;DHT22;7960;50.908;4.204;2022-07-21T04:41:15;18.60;99.90
15717;DHT22;7960;50.908;4.204;2022-07-21T04:43:42;18.70;99.90
15717;DHT22;7960;50.908;4.204;2022-07-21T04:46:10;18.70;99.90
15717;DHT22;7960;50.908;4.204;2022-07-21T04:48:37;18.70;99.90
15717;DHT22;7960;50.908;4.204;2022-07-21T04:51:04;18.70;99.90
15717;DHT22;7960;50.908;4.204;2022-07-21T04:53:31;18.70;99.90
15717;DHT22;7960;50.908;4.204;2022-07-21T04:55:57;18.60;99.90
15717;DHT22;7960;50.908;4.204;2022-07-21T04:58:24;18.70;99.90
15717;DHT22;7960;50.908;4.204;2022-07-21T05:00:51;18.60;99.90
15717;DHT22;7960;50.908;4.204;2022-07-21T05:03:19;18.60;99.90
15717;DHT22;7960;50.908;4.204;2022-07-21T05:05:46;18.60;99.90
15717;DHT22;7960;50.908;4.204;2022-07-21T05:08:13;18.60;99.90
15717;DHT22;7960;50.908;4.204;2022-07-21T05:10:40;18.60;99.90
15717;DHT22;7960;50.908;4.204;2022-07-21T05:13:09;18.70;99.90
15717;DHT22;7960;50.908;4.204;2022-07-21T05:15:36;18.60;99.90
15717;DHT22;7960;50.908;4.204;2022-07-21T05:18:03;18.60;99.90
15717;DHT22;7960;50.908;4.204;2022-07-21T05:20:34;18.60;99.90
15717;DHT22;7960;50.908;4.204;2022-07-21T05:23:01;18.50;99.90
15717;DHT22;7960;50.908;4.204;2022-07-21T05:25:28;18.50;99.90
15717;DHT22;7960;50.908;4.204;2022-07-21T05:27:57;18.40;99.90
15717;DHT22;7960;50.908;4.204;2022-07-21T05:30:24;18.40;99.90
15717;DHT22;7960;50.908;4.204;2022-07-21T05:32:51;18.40;99.90
15717;DHT22;7960;50.908;4.204;2022-07-21T05:35:18;18.40;99.90
15717;DHT22;7960;50.908;4.204;2022-07-21T05:37:46;18.40;99.90
15717;DHT22;7960;50.908;4.204;2022-07-21T05:40:13;18.40;99.90
15717;DHT22;7960;50.908;4.204;2022-07-21T05:42:40;18.40;99.90
15717;DHT22;7960;50.908;4.204;2022-07-21T05:45:08;18.40;99.90
15717;DHT22;7960;50.908;4.204;2022-07-21T05:47:35;18.40;99.90
15717;DHT22;7960;50.908;4.204;2022-07-21T05:50:02;18.40;99.90
15717;DHT22;7960;50.908;4.204;2022-07-21T05:52:29;18.40;99.90
15717;DHT22;7960;50.908;4.204;2022-07-21T05:54:57;18.40;99.90
15717;DHT22;7960;50.908;4.204;2022-07-21T05:57:26;18.40;99.90
15717;DHT22;7960;50.908;4.204;2022-07-21T05:59:52;18.30;99.90
15717;DHT22;7960;50.908;4.204;2022-07-21T06:02:19;18.30;99.90
15717;DHT22;7960;50.908;4.204;2022-07-21T06:04:46;18.30;99.90
15717;DHT22;7960;50.908;4.204;2022-07-21T06:07:13;18.40;99.90
15717;DHT22;7960;50.908;4.204;2022-07-21T06:09:40;18.30;99.90
15717;DHT22;7960;50.908;4.204;2022-07-21T06:12:08;18.30;99.90
15717;DHT22;7960;50.908;4.204;2022-07-21T06:14:35;18.20;99.90
15717;DHT22;7960;50.908;4.204;2022-07-21T06:17:02;18.20;99.90
15717;DHT22;7960;50.908;4.204;2022-07-21T06:19:29;18.30;99.90
15717;DHT22;7960;50.908;4.204;2022-07-21T06:21:56;18.30;99.90
15717;DHT22;7960;50.908;4.204;2022-07-21T06:24:24;18.30;99.90
15717;DHT22;7960;50.908;4.204;2022-07-21T06:26:52;18.30;99.90
15717;DHT22;7960;50.908;4.204;2022-07-21T06:29:22;18.30;99.90
15717;DHT22;7960;50.908;4.204;2022-07-21T06:31:49;18.30;99.90
15717;DHT22;7960;50.908;4.204;2022-07-21T06:34:16;18.30;99.90
15717;DHT22;7960;50.908;4.204;2022-07-21T06:36:43;18.20;99.90
15717;DHT22;7960;50.908;4.204;2022-07-21T06:39:09;18.20;99.90
15717;DHT22;7960;50.908;4.204;2022-07-21T06:41:38;18.20;99.90
15717;DHT22;7960;50.908;4.204;2022-07-21T06:44:05;18.20;99.90
15717;DHT22;7960;50.908;4.204;2022-07-21T06:46:34;18.20;99.90
15717;DHT22;7960;50.908;4.204;2022-07-21T06:49:01;18.30;99.90
15717;DHT22;7960;50.908;4.204;2022-07-21T06:51:28;18.20;99.90
15717;DHT22;7960;50.908;4.204;2022-07-21T06:53:55;18.30;99.90
15717;DHT22;7960;50.908;4.204;2022-07-21T06:56:22;18.20;99.90
15717;DHT22;7960;50.908;4.204;2022-07-21T06:58:49;18.30;99.90
15717;DHT22;7960;50.908;4.204;2022-07-21T07:01:16;18.20;99.90
15717;DHT22;7960;50.908;4.204;2022-07-21T07:03:45;18.30;99.90
15717;DHT22;7960;50.908;4.204;2022-07-21T07:06:13;18.30;99.90
15717;DHT22;7960;50.908;4.204;2022-07-21T07:08:39;18.30;99.90
15717;DHT22;7960;50.908;4.204;2022-07-21T07:11:06;18.40;99.90
15717;DHT22;7960;50.908;4.204;2022-07-21T07:13:33;18.30;99.90
15717;DHT22;7960;50.908;4.204;2022-07-21T07:16:00;18.40;99.90
15717;DHT22;7960;50.908;4.204;2022-07-21T07:18:27;18.40;99.90
15717;DHT22;7960;50.908;4.204;2022-07-21T07:20:55;18.40;99.90
15717;DHT22;7960;50.908;4.204;2022-07-21T07:23:22;18.30;99.90
15717;DHT22;7960;50.908;4.204;2022-07-21T07:25:49;18.40;99.90
15717;DHT22;7960;50.908;4.204;2022-07-21T07:28:16;18.40;99.90
15717;DHT22;7960;50.908;4.204;2022-07-21T07:30:43;18.40;99.90
15717;DHT22;7960;50.908;4.204;2022-07-21T07:33:09;18.40;99.90
15717;DHT22;7960;50.908;4.204;2022-07-21T07:35:36;18.50;99.90
15717;DHT22;7960;50.908;4.204;2022-07-21T07:38:04;18.40;99.90
15717;DHT22;7960;50.908;4.204;2022-07-21T07:40:31;18.50;99.90
15717;DHT22;7960;50.908;4.204;2022-07-21T07:42:58;18.50;99.90
15717;DHT22;7960;50.908;4.204;2022-07-21T07:45:26;18.50;99.90
15717;DHT22;7960;50.908;4.204;2022-07-21T07:47:53;18.50;99.90
15717;DHT22;7960;50.908;4.204;2022-07-21T07:50:19;18.50;99.90
15717;DHT22;7960;50.908;4.204;2022-07-21T07:52:46;18.50;99.90
15717;DHT22;7960;50.908;4.204;2022-07-21T07:55:14;18.60;99.90
15717;DHT22;7960;50.908;4.204;2022-07-21T07:57:42;18.60;99.90
15717;DHT22;7960;50.908;4.204;2022-07-21T08:00:11;18.60;99.90
15717;DHT22;7960;50.908;4.204;2022-07-21T08:02:38;18.50;99.90
15717;DHT22;7960;50.908;4.204;2022-07-21T08:05:06;18.50;99.90
15717;DHT22;7960;50.908;4.204;2022-07-21T08:07:34;18.50;99.90
15717;DHT22;7960;50.908;4.204;2022-07-21T08:10:04;18.50;99.90
15717;DHT22;7960;50.908;4.204;2022-07-21T08:12:32;18.50;99.90
15717;DHT22;7960;50.908;4.204;2022-07-21T08:14:59;18.50;99.90
15717;DHT22;7960;50.908;4.204;2022-07-21T08:17:26;18.50;99.90
15717;DHT22;7960;50.908;4.204;2022-07-21T08:19:53;18.50;99.90
15717;DHT22;7960;50.908;4.204;2022-07-21T08:22:19;18.50;99.90
15717;DHT22;7960;50.908;4.204;2022-07-21T08:24:47;18.60;99.90
15717;DHT22;7960;50.908;4.204;2022-07-21T08:27:13;18.60;99.90
15717;DHT22;7960;50.908;4.204;2022-07-21T08:29:42;18.50;99.90
15717;DHT22;7960;50.908;4.204;2022-07-21T08:32:09;18.50;99.90
15717;DHT22;7960;50.908;4.204;2022-07-21T08:34:36;18.40;99.90
15717;DHT22;7960;50.908;4.204;2022-07-21T08:37:03;18.50;99.90
15717;DHT22;7960;50.908;4.204;2022-07-21T08:39:30;18.50;99.90
15717;DHT22;7960;50.908;4.204;2022-07-21T08:41:56;18.50;99.90
15717;DHT22;7960;50.908;4.204;2022-07-21T08:44:23;18.60;99.90
15717;DHT22;7960;50.908;4.204;2022-07-21T08:46:52;18.60;99.90
15717;DHT22;7960;50.908;4.204;2022-07-21T08:49:21;18.60;99.90
15717;DHT22;7960;50.908;4.204;2022-07-21T08:51:48;18.70;99.90
15717;DHT22;7960;50.908;4.204;2022-07-21T08:54:16;18.70;99.90
15717;DHT22;7960;50.908;4.204;2022-07-21T08:56:43;18.60;99.90
15717;DHT22;7960;50.908;4.204;2022-07-21T08:59:10;18.50;99.90
15717;DHT22;7960;50.908;4.204;2022-07-21T09:01:37;18.50;99.90
15717;DHT22;7960;50.908;4.204;2022-07-21T09:04:22;18.40;99.90
15717;DHT22;7960;50.908;4.204;2022-07-21T09:06:52;18.40;99.90
15717;DHT22;7960;50.908;4.204;2022-07-21T09:09:20;18.40;99.90
15717;DHT22;7960;50.908;4.204;2022-07-21T09:11:48;18.30;99.90
15717;DHT22;7960;50.908;4.204;2022-07-21T09:14:16;18.30;99.90
15717;DHT22;7960;50.908;4.204;2022-07-21T09:16:46;18.40;99.90
15717;DHT22;7960;50.908;4.204;2022-07-21T09:19:19;18.30;99.90
15717;DHT22;7960;50.908;4.204;2022-07-21T09:21:49;18.40;99.90
15717;DHT22;7960;50.908;4.204;2022-07-21T09:24:20;18.50;99.90
15717;DHT22;7960;50.908;4.204;2022-07-21T09:27:04;18.40;99.90
15717;DHT22;7960;50.908;4.204;2022-07-21T09:29:43;18.40;99.90
15717;DHT22;7960;50.908;4.204;2022-07-21T09:32:21;18.40;99.90
15717;DHT22;7960;50.908;4.204;2022-07-21T09:34:52;18.50;99.90
15717;DHT22;7960;50.908;4.204;2022-07-21T09:37:22;18.50;99.90
15717;DHT22;7960;50.908;4.204;2022-07-21T09:39:51;18.40;99.90
15717;DHT22;7960;50.908;4.204;2022-07-21T09:42:21;18.50;99.90
15717;DHT22;7960;50.908;4.204;2022-07-21T09:44:51;18.60;99.90
15717;DHT22;7960;50.908;4.204;2022-07-21T09:47:19;18.70;99.90
15717;DHT22;7960;50.908;4.204;2022-07-21T09:49:46;18.60;99.90
15717;DHT22;7960;50.908;4.204;2022-07-21T09:52:26;18.70;99.90
15717;DHT22;7960;50.908;4.204;2022-07-21T09:54:56;18.70;99.90
15717;DHT22;7960;50.908;4.204;2022-07-21T09:57:23;18.70;99.90
15717;DHT22;7960;50.908;4.204;2022-07-21T09:59:50;18.60;99.90
15717;DHT22;7960;50.908;4.204;2022-07-21T10:02:19;18.70;99.90
15717;DHT22;7960;50.908;4.204;2022-07-21T10:04:50;18.80;99.90
15717;DHT22;7960;50.908;4.204;2022-07-21T10:07:18;18.80;99.90
15717;DHT22;7960;50.908;4.204;2022-07-21T10:09:48;18.80;99.90
15717;DHT22;7960;50.908;4.204;2022-07-21T10:12:15;18.70;99.90
15717;DHT22;7960;50.908;4.204;2022-07-21T10:14:42;18.70;99.90
15717;DHT22;7960;50.908;4.204;2022-07-21T10:17:09;18.60;99.90
15717;DHT22;7960;50.908;4.204;2022-07-21T10:19:41;18.60;99.90
15717;DHT22;7960;50.908;4.204;2022-07-21T10:22:20;18.70;99.90
15717;DHT22;7960;50.908;4.204;2022-07-21T10:24:50;18.70;99.90
15717;DHT22;7960;50.908;4.204;2022-07-21T10:27:17;18.70;99.90
15717;DHT22;7960;50.908;4.204;2022-07-21T10:29:58;18.70;99.90
15717;DHT22;7960;50.908;4.204;2022-07-21T10:32:29;18.60;99.90
15717;DHT22;7960;50.908;4.204;2022-07-21T10:34:57;18.60;99.90
15717;DHT22;7960;50.908;4.204;2022-07-21T10:37:47;18.50;99.90
15717;DHT22;7960;50.908;4.204;2022-07-21T10:40:40;18.60;99.90
15717;DHT22;7960;50.908;4.204;2022-07-21T10:43:37;18.50;99.90
15717;DHT22;7960;50.908;4.204;2022-07-21T10:46:35;18.60;99.90
15717;DHT22;7960;50.908;4.204;2022-07-21T10:49:07;18.70;99.90
15717;DHT22;7960;50.908;4.204;2022-07-21T10:51:35;18.90;99.90
15717;DHT22;7960;50.908;4.204;2022-07-21T10:54:30;19.00;99.90
15717;DHT22;7960;50.908;4.204;2022-07-21T10:57:31;19.00;99.90
15717;DHT22;7960;50.908;4.204;2022-07-21T11:00:33;19.10;99.90
15717;DHT22;7960;50.908;4.204;2022-07-21T11:03:01;19.20;99.90
15717;DHT22;7960;50.908;4.204;2022-07-21T11:05:31;19.30;99.90
15717;DHT22;7960;50.908;4.204;2022-07-21T11:08:19;19.30;99.90
15717;DHT22;7960;50.908;4.204;2022-07-21T11:10:48;19.20;99.90
15717;DHT22;7960;50.908;4.204;2022-07-21T11:13:18;19.10;99.90
15717;DHT22;7960;50.908;4.204;2022-07-21T11:15:56;19.00;99.90
15717;DHT22;7960;50.908;4.204;2022-07-21T11:18:24;19.00;99.90
15717;DHT22;7960;50.908;4.204;2022-07-21T11:21:02;19.00;99.90
15717;DHT22;7960;50.908;4.204;2022-07-21T11:23:37;19.10;99.90
15717;DHT22;7960;50.908;4.204;2022-07-21T11:26:04;19.20;99.90
15717;DHT22;7960;50.908;4.204;2022-07-21T11:28:33;19.30;99.90
15717;DHT22;7960;50.908;4.204;2022-07-21T11:31:07;19.30;99.90
15717;DHT22;7960;50.908;4.204;2022-07-21T11:33:36;19.20;99.90
15717;DHT22;7960;50.908;4.204;2022-07-21T11:36:04;19.20;99.90
15717;DHT22;7960;50.908;4.204;2022-07-21T11:38:31;19.10;99.90
15717;DHT22;7960;50.908;4.204;2022-07-21T11:41:13;19.10;99.90
15717;DHT22;7960;50.908;4.204;2022-07-21T11:43:42;19.00;99.90
15717;DHT22;7960;50.908;4.204;2022-07-21T11:46:09;19.10;99.90
15717;DHT22;7960;50.908;4.204;2022-07-21T11:48:36;19.00;99.90
15717;DHT22;7960;50.908;4.204;2022-07-21T11:51:03;19.10;99.90
15717;DHT22;7960;50.908;4.204;2022-07-21T11:53:31;19.20;99.90
15717;DHT22;7960;50.908;4.204;2022-07-21T11:55:58;19.20;99.90
15717;DHT22;7960;50.908;4.204;2022-07-21T11:58:25;19.30;99.90
15717;DHT22;7960;50.908;4.204;2022-07-21T12:01:06;19.40;99.90
15717;DHT22;7960;50.908;4.204;2022-07-21T12:03:33;19.40;99.90
15717;DHT22;7960;50.908;4.204;2022-07-21T12:06:01;19.50;99.90
15717;DHT22;7960;50.908;4.204;2022-07-21T12:08:29;19.60;99.90
15717;DHT22;7960;50.908;4.204;2022-07-21T12:11:05;19.70;99.90
15717;DHT22;7960;50.908;4.204;2022-07-21T12:13:57;19.80;99.90
15717;DHT22;7960;50.908;4.204;2022-07-21T12:16:25;19.70;99.90
15717;DHT22;7960;50.908;4.204;2022-07-21T12:19:10;19.70;99.90
15717;DHT22;7960;50.908;4.204;2022-07-21T12:21:47;19.60;99.90
15717;DHT22;7960;50.908;4.204;2022-07-21T12:24:16;19.50;99.90
15717;DHT22;7960;50.908;4.204;2022-07-21T12:26:43;19.50;99.90
15717;DHT22;7960;50.908;4.204;2022-07-21T12:29:10;19.50;99.90
15717;DHT22;7960;50.908;4.204;2022-07-21T12:31:38;19.40;99.90
15717;DHT22;7960;50.908;4.204;2022-07-21T12:34:13;19.40;99.90
15717;DHT22;7960;50.908;4.204;2022-07-21T12:36:41;19.30;99.90
15717;DHT22;7960;50.908;4.204;2022-07-21T12:39:19;19.30;99.90
15717;DHT22;7960;50.908;4.204;2022-07-21T12:42:05;19.20;99.90
15717;DHT22;7960;50.908;4.204;2022-07-21T12:44:32;19.00;99.90
15717;DHT22;7960;50.908;4.204;2022-07-21T12:47:14;19.10;99.90
15717;DHT22;7960;50.908;4.204;2022-07-21T12:49:58;18.90;99.90
15717;DHT22;7960;50.908;4.204;2022-07-21T12:52:26;19.00;99.90
15717;DHT22;7960;50.908;4.204;2022-07-21T12:54:53;19.00;99.90
15717;DHT22;7960;50.908;4.204;2022-07-21T12:57:20;19.10;99.90
15717;DHT22;7960;50.908;4.204;2022-07-21T12:59:47;19.10;99.90
15717;DHT22;7960;50.908;4.204;2022-07-21T13:02:15;19.30;99.90
15717;DHT22;7960;50.908;4.204;2022-07-21T13:04:42;19.30;99.90
15717;DHT22;7960;50.908;4.204;2022-07-21T13:07:10;19.30;99.90
15717;DHT22;7960;50.908;4.204;2022-07-21T13:09:36;19.40;99.90
15717;DHT22;7960;50.908;4.204;2022-07-21T13:12:04;19.30;99.90
15717;DHT22;7960;50.908;4.204;2022-07-21T13:14:31;19.30;99.90
15717;DHT22;7960;50.908;4.204;2022-07-21T13:16:58;19.40;99.90
15717;DHT22;7960;50.908;4.204;2022-07-21T13:19:26;19.40;99.90
15717;DHT22;7960;50.908;4.204;2022-07-21T13:21:53;19.50;99.90
15717;DHT22;7960;50.908;4.204;2022-07-21T13:24:20;19.40;99.90
15717;DHT22;7960;50.908;4.204;2022-07-21T13:26:47;19.30;99.90
15717;DHT22;7960;50.908;4.204;2022-07-21T13:29:13;19.20;99.90
15717;DHT22;7960;50.908;4.204;2022-07-21T13:31:40;19.20;99.90
15717;DHT22;7960;50.908;4.204;2022-07-21T13:34:07;19.20;99.90
15717;DHT22;7960;50.908;4.204;2022-07-21T13:36:36;19.30;99.90
15717;DHT22;7960;50.908;4.204;2022-07-21T13:39:04;19.20;99.90
15717;DHT22;7960;50.908;4.204;2022-07-21T13:41:32;19.20;99.90
15717;DHT22;7960;50.908;4.204;2022-07-21T13:43:59;19.20;99.90
15717;DHT22;7960;50.908;4.204;2022-07-21T13:46:27;19.20;99.90
15717;DHT22;7960;50.908;4.204;2022-07-21T13:48:54;19.20;99.90
15717;DHT22;7960;50.908;4.204;2022-07-21T13:51:21;19.30;99.90
15717;DHT22;7960;50.908;4.204;2022-07-21T13:53:51;19.30;99.90
15717;DHT22;7960;50.908;4.204;2022-07-21T13:56:19;19.20;99.90
15717;DHT22;7960;50.908;4.204;2022-07-21T13:58:46;19.30;99.90
15717;DHT22;7960;50.908;4.204;2022-07-21T14:01:14;19.30;99.90
15717;DHT22;7960;50.908;4.204;2022-07-21T14:03:42;19.30;99.90
15717;DHT22;7960;50.908;4.204;2022-07-21T14:06:09;19.50;99.90
15717;DHT22;7960;50.908;4.204;2022-07-21T14:08:36;19.60;99.90
15717;DHT22;7960;50.908;4.204;2022-07-21T14:11:05;19.80;99.90
15717;DHT22;7960;50.908;4.204;2022-07-21T14:13:33;19.80;99.90
15717;DHT22;7960;50.908;4.204;2022-07-21T14:16:00;19.70;99.90
15717;DHT22;7960;50.908;4.204;2022-07-21T14:18:27;19.80;99.90
15717;DHT22;7960;50.908;4.204;2022-07-21T14:20:54;19.70;99.90
15717;DHT22;7960;50.908;4.204;2022-07-21T14:23:22;19.60;99.90
15717;DHT22;7960;50.908;4.204;2022-07-21T14:25:50;19.50;99.90
15717;DHT22;7960;50.908;4.204;2022-07-21T14:28:19;19.50;99.90
15717;DHT22;7960;50.908;4.204;2022-07-21T14:30:46;19.60;99.90
15717;DHT22;7960;50.908;4.204;2022-07-21T14:33:13;19.60;99.90
15717;DHT22;7960;50.908;4.204;2022-07-21T14:35:40;19.70;99.90
15717;DHT22;7960;50.908;4.204;2022-07-21T14:38:07;19.90;99.90
15717;DHT22;7960;50.908;4.204;2022-07-21T14:40:34;20.10;99.90
15717;DHT22;7960;50.908;4.204;2022-07-21T14:43:01;20.50;99.90
15717;DHT22;7960;50.908;4.204;2022-07-21T14:45:29;20.50;99.90
15717;DHT22;7960;50.908;4.204;2022-07-21T14:47:57;20.70;99.90
15717;DHT22;7960;50.908;4.204;2022-07-21T14:50:26;21.00;99.90
15717;DHT22;7960;50.908;4.204;2022-07-21T14:52:53;21.10;99.90
15717;DHT22;7960;50.908;4.204;2022-07-21T14:55:20;21.10;99.90
15717;DHT22;7960;50.908;4.204;2022-07-21T14:57:48;20.90;99.90
15717;DHT22;7960;50.908;4.204;2022-07-21T15:00:16;20.90;99.90
15717;DHT22;7960;50.908;4.204;2022-07-21T15:02:44;20.80;99.90
15717;DHT22;7960;50.908;4.204;2022-07-21T15:05:11;20.70;99.90
15717;DHT22;7960;50.908;4.204;2022-07-21T15:07:40;20.40;99.90
15717;DHT22;7960;50.908;4.204;2022-07-21T15:10:08;20.20;99.90
15717;DHT22;7960;50.908;4.204;2022-07-21T15:12:35;20.10;99.90
15717;DHT22;7960;50.908;4.204;2022-07-21T15:15:02;20.10;99.90
15717;DHT22;7960;50.908;4.204;2022-07-21T15:17:30;20.10;99.90
15717;DHT22;7960;50.908;4.204;2022-07-21T15:19:59;20.30;99.90
15717;DHT22;7960;50.908;4.204;2022-07-21T15:22:26;20.60;99.90
15717;DHT22;7960;50.908;4.204;2022-07-21T15:24:55;20.70;99.90
15717;DHT22;7960;50.908;4.204;2022-07-21T15:27:22;20.80;99.90
15717;DHT22;7960;50.908;4.204;2022-07-21T15:29:48;20.70;99.90
15717;DHT22;7960;50.908;4.204;2022-07-21T15:32:15;20.60;99.90
15717;DHT22;7960;50.908;4.204;2022-07-21T15:34:42;20.60;99.90
15717;DHT22;7960;50.908;4.204;2022-07-21T15:37:10;20.50;99.90
15717;DHT22;7960;50.908;4.204;2022-07-21T15:39:37;20.40;99.90
15717;DHT22;7960;50.908;4.204;2022-07-21T15:42:07;20.20;99.90
15717;DHT22;7960;50.908;4.204;2022-07-21T15:44:34;20.20;99.90
15717;DHT22;7960;50.908;4.204;2022-07-21T15:47:01;20.20;99.90
15717;DHT22;7960;50.908;4.204;2022-07-21T15:49:28;20.30;99.90
15717;DHT22;7960;50.908;4.204;2022-07-21T15:51:55;20.30;99.90
15717;DHT22;7960;50.908;4.204;2022-07-21T15:54:23;20.40;99.90